createdAt,value
2019-05-15T00:02:20.859Z,92.20
2019-05-15T00:04:49.340Z,92.30
2019-05-15T00:07:20.655Z,92.30
2019-05-15T00:09:49.123Z,92.60
2019-05-15T00:12:18.900Z,92.80
2019-05-15T00:14:48.466Z,92.90
2019-05-15T00:17:18.974Z,93.20
2019-05-15T00:19:50.208Z,93.00
2019-05-15T00:22:18.307Z,93.10
2019-05-15T00:24:48.670Z,93.30
2019-05-15T00:27:16.686Z,93.50
2019-05-15T00:29:44.527Z,93.60
2019-05-15T00:32:12.402Z,93.60
2019-05-15T00:34:40.825Z,93.70
2019-05-15T00:37:09.405Z,93.80
2019-05-15T00:39:39.067Z,93.60
2019-05-15T00:42:08.271Z,93.70
2019-05-15T00:44:38.728Z,93.90
2019-05-15T00:47:10.242Z,94.20
2019-05-15T00:49:38.119Z,94.60
2019-05-15T00:52:11.786Z,94.70
2019-05-15T00:54:36.049Z,94.70
2019-05-15T00:57:03.814Z,94.60
2019-05-15T00:59:31.607Z,94.90
2019-05-15T01:02:00.730Z,95.00
2019-05-15T01:04:28.836Z,95.20
2019-05-15T01:06:58.838Z,95.30
2019-05-15T01:09:29.053Z,95.30
2019-05-15T01:11:58.582Z,95.40
2019-05-15T01:14:27.859Z,95.30
2019-05-15T01:16:58.132Z,95.30
2019-05-15T01:19:28.352Z,95.60
2019-05-15T01:21:58.562Z,95.40
2019-05-15T01:24:28.316Z,95.60
2019-05-15T01:26:58.447Z,95.70
2019-05-15T01:29:40.082Z,95.80
2019-05-15T01:31:56.063Z,95.90
2019-05-15T01:34:24.210Z,95.80
2019-05-15T01:36:52.406Z,95.90
2019-05-15T01:39:20.443Z,96.10
2019-05-15T01:41:49.684Z,96.20
2019-05-15T01:44:18.391Z,96.30
2019-05-15T01:46:48.290Z,96.20
2019-05-15T01:49:15.866Z,96.20
2019-05-15T01:51:43.632Z,96.10
2019-05-15T01:54:11.408Z,96.20
2019-05-15T01:56:40.348Z,96.30
2019-05-15T01:59:08.778Z,96.50
2019-05-15T02:01:39.270Z,96.60
2019-05-15T02:04:08.337Z,96.60
2019-05-15T02:06:38.902Z,96.60
2019-05-15T02:09:08.325Z,96.80
2019-05-15T02:11:38.255Z,96.80
2019-05-15T02:14:08.300Z,96.80
2019-05-15T02:16:35.887Z,96.70
2019-05-15T02:19:04.068Z,96.50
2019-05-15T02:21:32.310Z,96.30
2019-05-15T02:24:00.130Z,96.20
2019-05-15T02:26:28.310Z,96.60
2019-05-15T02:28:58.810Z,96.10
2019-05-15T02:31:29.858Z,96.30
2019-05-15T02:33:58.907Z,96.60
2019-05-15T02:36:29.057Z,96.90
2019-05-15T02:38:55.744Z,97.00
2019-05-15T02:41:24.411Z,97.30
2019-05-15T02:43:53.141Z,97.20
2019-05-15T02:46:21.344Z,97.40
2019-05-15T02:48:49.673Z,97.60
2019-05-15T02:51:19.418Z,97.80
2019-05-15T02:53:50.063Z,98.10
2019-05-15T02:56:20.216Z,98.20
2019-05-15T02:58:49.161Z,98.20
2019-05-15T03:01:19.046Z,98.40
2019-05-15T03:03:49.865Z,98.40
2019-05-15T03:06:19.200Z,98.60
2019-05-15T03:09:02.985Z,98.50
2019-05-15T03:11:40.864Z,98.60
2019-05-15T03:14:09.963Z,99.10
2019-05-15T03:16:39.500Z,99.90
2019-05-15T03:19:09.930Z,99.90
2019-05-15T03:21:38.877Z,99.90
2019-05-15T03:24:10.108Z,99.90
2019-05-15T03:26:39.634Z,99.90
2019-05-15T03:29:09.950Z,99.90
2019-05-15T03:31:52.840Z,99.90
2019-05-15T03:34:20.003Z,99.90
2019-05-15T03:36:37.713Z,99.90
2019-05-15T03:39:06.102Z,99.90
2019-05-15T03:41:35.160Z,99.90
2019-05-15T03:44:02.931Z,99.90
2019-05-15T03:46:31.163Z,99.90
2019-05-15T03:49:00.409Z,99.90
2019-05-15T03:51:29.130Z,99.90
2019-05-15T03:54:00.057Z,99.90
2019-05-15T03:56:29.441Z,99.90
2019-05-15T03:58:59.765Z,99.90
2019-05-15T04:01:34.162Z,99.90
2019-05-15T04:03:59.608Z,99.90
2019-05-15T04:06:29.629Z,99.90
2019-05-15T04:08:58.669Z,99.90
2019-05-15T04:11:38.770Z,99.90
2019-05-15T04:14:05.540Z,99.90
2019-05-15T04:16:33.807Z,99.90
2019-05-15T04:19:02.370Z,99.90
2019-05-15T04:21:31.036Z,99.90
2019-05-15T04:23:59.875Z,99.90
2019-05-15T04:26:30.289Z,99.90
2019-05-15T04:29:00.071Z,99.90
2019-05-15T04:31:41.136Z,99.90
2019-05-15T04:33:59.392Z,99.90
2019-05-15T04:36:29.659Z,99.90
2019-05-15T04:38:58.736Z,99.90
2019-05-15T04:41:29.658Z,99.90
2019-05-15T04:43:59.726Z,99.90
2019-05-15T04:46:29.421Z,99.90
2019-05-15T04:48:59.642Z,99.90
2019-05-15T04:51:30.406Z,99.90
2019-05-15T04:53:58.709Z,99.90
2019-05-15T04:56:29.288Z,99.10
2019-05-15T04:58:59.866Z,98.40
2019-05-15T05:01:28.657Z,98.00
2019-05-15T05:03:58.728Z,97.30
2019-05-15T05:06:25.519Z,97.30
2019-05-15T05:08:53.757Z,96.70
2019-05-15T05:11:24.082Z,96.30
2019-05-15T05:13:53.226Z,96.30
2019-05-15T05:16:21.403Z,95.70
2019-05-15T05:18:51.373Z,95.60
2019-05-15T05:21:19.137Z,95.20
2019-05-15T05:23:48.402Z,94.90
2019-05-15T05:26:18.618Z,94.40
2019-05-15T05:28:48.417Z,94.00
2019-05-15T05:31:18.855Z,92.90
2019-05-15T05:33:45.751Z,92.50
2019-05-15T05:36:13.535Z,91.30
2019-05-15T05:38:41.364Z,91.10
2019-05-15T05:41:09.873Z,90.00
2019-05-15T05:43:38.432Z,87.80
2019-05-15T05:46:08.989Z,86.60
2019-05-15T05:48:38.375Z,84.30
2019-05-15T05:51:06.018Z,82.50
2019-05-15T05:53:33.801Z,80.60
2019-05-15T05:56:01.900Z,81.50
2019-05-15T05:58:30.454Z,79.70
2019-05-15T06:00:58.801Z,80.50
2019-05-15T06:03:30.653Z,81.60
2019-05-15T06:05:59.057Z,81.70
2019-05-15T06:08:28.358Z,81.50
2019-05-15T06:10:58.555Z,81.80
2019-05-15T06:13:26.088Z,81.40
2019-05-15T06:15:54.844Z,81.80
2019-05-15T06:18:28.004Z,82.20
2019-05-15T06:20:55.290Z,80.90
2019-05-15T06:23:26.474Z,80.30
2019-05-15T06:25:55.706Z,78.60
2019-05-15T06:28:23.790Z,78.40
2019-05-15T06:30:51.533Z,78.60
2019-05-15T06:33:19.765Z,78.40
2019-05-15T06:35:48.876Z,78.30
2019-05-15T06:38:19.412Z,77.60
2019-05-15T06:40:48.628Z,78.20
2019-05-15T06:43:19.203Z,76.90
2019-05-15T06:45:48.697Z,77.20
2019-05-15T06:48:18.400Z,75.80
2019-05-15T06:50:49.071Z,74.30
2019-05-15T06:53:19.113Z,74.90
2019-05-15T06:55:48.524Z,74.70
2019-05-15T06:58:28.756Z,74.30
2019-05-15T07:00:58.983Z,75.90
2019-05-15T07:03:29.170Z,74.90
2019-05-15T07:05:59.793Z,72.10
2019-05-15T07:08:28.669Z,73.00
2019-05-15T07:10:57.874Z,72.60
2019-05-15T07:13:28.811Z,71.20
2019-05-15T07:15:58.365Z,69.70
2019-05-15T07:18:28.174Z,69.70
2019-05-15T07:21:11.316Z,70.30
2019-05-15T07:23:39.379Z,70.70
2019-05-15T07:26:09.517Z,72.20
2019-05-15T07:28:39.694Z,73.00
2019-05-15T07:31:11.282Z,72.90
2019-05-15T07:33:43.158Z,72.60
2019-05-15T07:36:08.402Z,70.80
2019-05-15T07:38:39.182Z,69.40
2019-05-15T07:41:09.747Z,69.50
2019-05-15T07:43:38.258Z,69.10
2019-05-15T07:46:08.093Z,69.80
2019-05-15T07:48:39.365Z,69.80
2019-05-15T07:51:11.939Z,70.10
2019-05-15T07:53:40.262Z,70.20
2019-05-15T07:56:11.737Z,68.60
2019-05-15T07:58:38.652Z,69.60
2019-05-15T08:01:09.637Z,69.50
2019-05-15T08:03:56.482Z,68.70
2019-05-15T08:06:18.045Z,67.60
2019-05-15T08:09:01.916Z,68.30
2019-05-15T08:11:48.576Z,67.70
2019-05-15T08:14:08.775Z,66.40
2019-05-15T08:16:39.250Z,65.10
2019-05-15T08:19:13.034Z,65.00
2019-05-15T08:21:40.577Z,65.60
2019-05-15T08:24:12.421Z,64.00
2019-05-15T08:26:45.291Z,62.90
2019-05-15T08:29:10.457Z,63.00
2019-05-15T08:31:38.993Z,62.50
2019-05-15T08:34:13.564Z,61.10
2019-05-15T08:36:38.574Z,60.70
2019-05-15T08:39:08.459Z,60.10
2019-05-15T08:41:38.840Z,60.70
2019-05-15T08:44:08.601Z,59.00
2019-05-15T08:46:38.728Z,59.10
2019-05-15T08:49:09.221Z,59.10
2019-05-15T08:51:38.141Z,59.00
2019-05-15T08:54:08.529Z,59.00
2019-05-15T08:56:39.137Z,57.30
2019-05-15T08:59:08.688Z,55.40
2019-05-15T09:01:38.243Z,56.50
2019-05-15T09:04:06.015Z,57.10
2019-05-15T09:06:33.884Z,57.30
2019-05-15T09:09:02.979Z,56.60
2019-05-15T09:11:30.816Z,55.70
2019-05-15T09:13:59.672Z,56.80
2019-05-15T09:16:28.044Z,55.50
2019-05-15T09:18:58.999Z,56.20
2019-05-15T09:21:28.713Z,56.90
2019-05-15T09:23:58.879Z,56.70
2019-05-15T09:26:28.382Z,56.10
2019-05-15T09:28:58.325Z,56.60
2019-05-15T09:31:28.270Z,57.10
2019-05-15T09:33:58.381Z,56.50
2019-05-15T09:36:28.635Z,56.00
2019-05-15T09:38:58.328Z,55.00
2019-05-15T09:41:26.040Z,54.90
2019-05-15T09:43:57.950Z,54.70
2019-05-15T09:46:25.774Z,53.90
2019-05-15T09:48:53.905Z,53.10
2019-05-15T09:51:22.623Z,54.00
2019-05-15T09:53:51.110Z,53.40
2019-05-15T09:56:19.134Z,53.80
2019-05-15T09:58:48.988Z,53.60
2019-05-15T10:01:19.760Z,53.60
2019-05-15T10:03:48.456Z,54.70
2019-05-15T10:06:20.073Z,53.50
2019-05-15T10:08:48.743Z,52.70
2019-05-15T10:11:16.232Z,53.30
2019-05-15T10:13:58.364Z,52.80
2019-05-15T10:16:26.165Z,51.80
2019-05-15T10:18:54.235Z,52.30
2019-05-15T10:21:22.976Z,53.20
2019-05-15T10:23:59.048Z,51.60
2019-05-15T10:26:29.757Z,51.20
2019-05-15T10:29:11.411Z,51.50
2019-05-15T10:31:48.256Z,51.60
2019-05-15T10:34:26.032Z,51.60
2019-05-15T10:36:53.761Z,50.20
2019-05-15T10:39:24.863Z,50.80
2019-05-15T10:41:57.304Z,50.40
2019-05-15T10:44:31.330Z,50.90
2019-05-15T10:47:05.611Z,50.60
2019-05-15T10:49:49.522Z,50.90
2019-05-15T10:52:18.128Z,49.90
2019-05-15T10:54:46.226Z,49.80
2019-05-15T10:57:13.973Z,51.00
2019-05-15T11:00:13.524Z,49.80
2019-05-15T11:02:41.632Z,49.80
2019-05-15T11:05:41.061Z,50.30
2019-05-15T11:08:23.363Z,49.60
2019-05-15T11:11:02.717Z,49.90
2019-05-15T11:13:41.265Z,50.40
2019-05-15T11:16:09.208Z,50.80
2019-05-15T11:18:39.326Z,50.30
2019-05-15T11:21:20.207Z,51.30
2019-05-15T11:23:49.436Z,51.90
2019-05-15T11:26:19.497Z,52.80
2019-05-15T11:29:04.088Z,52.60
2019-05-15T11:31:42.488Z,52.70
2019-05-15T11:34:11.055Z,52.50
2019-05-15T11:36:39.216Z,51.90
2019-05-15T11:39:08.407Z,51.70
2019-05-15T11:41:45.039Z,51.20
2019-05-15T11:44:15.884Z,51.40
2019-05-15T11:46:43.683Z,50.60
2019-05-15T11:49:14.876Z,50.80
2019-05-15T11:51:49.347Z,50.50
2019-05-15T11:54:21.296Z,50.30
2019-05-15T11:56:49.265Z,51.00
2019-05-15T11:59:25.871Z,50.60
2019-05-15T12:01:55.045Z,51.10
2019-05-15T12:04:30.141Z,50.70
2019-05-15T12:06:59.803Z,49.80
2019-05-15T12:09:22.943Z,50.50
2019-05-15T12:11:50.678Z,49.90
2019-05-15T12:14:19.646Z,50.70
2019-05-15T12:19:20.226Z,51.70
2019-05-15T12:21:48.928Z,51.60
2019-05-15T12:24:17.951Z,51.20
2019-05-15T12:26:48.822Z,51.80
2019-05-15T12:29:15.945Z,52.10
2019-05-15T12:31:44.677Z,52.40
2019-05-15T12:34:30.433Z,52.50
2019-05-15T12:36:58.386Z,52.50
2019-05-15T12:39:30.291Z,52.90
2019-05-15T12:59:49.816Z,55.60
2019-05-15T13:02:24.347Z,54.70
2019-05-15T13:05:01.482Z,54.90
2019-05-15T13:07:29.619Z,55.20
2019-05-15T13:09:58.108Z,55.40
2019-05-15T13:12:28.579Z,55.70
2019-05-15T13:15:00.736Z,55.80
2019-05-15T13:17:34.363Z,56.00
2019-05-15T13:20:02.575Z,56.40
2019-05-15T13:22:30.478Z,56.70
2019-05-15T13:25:03.408Z,56.50
2019-05-15T13:27:37.964Z,56.20
2019-05-15T13:30:18.331Z,56.80
2019-05-15T13:32:49.423Z,56.20
2019-05-15T13:35:18.375Z,56.10
2019-05-15T13:37:49.189Z,56.70
2019-05-15T13:40:18.740Z,56.40
2019-05-15T13:42:48.616Z,56.60
2019-05-15T13:45:18.608Z,56.40
2019-05-15T13:48:20.188Z,56.80
2019-05-15T13:50:59.385Z,56.30
2019-05-15T13:53:28.717Z,56.70
2019-05-15T13:56:05.404Z,56.50
2019-05-15T13:58:49.271Z,56.60
2019-05-15T14:01:29.241Z,56.30
2019-05-15T14:03:58.818Z,57.00
2019-05-15T14:06:37.820Z,57.60
2019-05-15T14:09:12.580Z,57.80
2019-05-15T14:11:40.625Z,57.90
2019-05-15T14:14:18.482Z,56.80
2019-05-15T14:16:55.931Z,56.60
2019-05-15T14:19:30.630Z,56.90
2019-05-15T14:22:12.333Z,57.00
2019-05-15T14:24:42.553Z,56.60
2019-05-15T14:27:15.638Z,56.70
2019-05-15T14:29:49.011Z,56.90
2019-05-15T14:32:53.408Z,56.20
2019-05-15T14:34:51.189Z,56.50
2019-05-15T14:37:34.236Z,55.70
2019-05-15T14:40:15.032Z,54.90
2019-05-15T14:42:45.203Z,55.00
2019-05-15T14:45:19.114Z,55.50
2019-05-15T14:47:52.271Z,56.20
2019-05-15T14:50:25.534Z,55.20
2019-05-15T14:52:54.303Z,55.80
2019-05-15T14:55:45.112Z,56.70
2019-05-15T14:58:13.505Z,56.20
2019-05-15T15:00:43.539Z,55.70
2019-05-15T15:03:11.531Z,56.10
2019-05-15T15:05:39.686Z,55.70
2019-05-15T15:08:20.779Z,55.80
2019-05-15T15:10:42.393Z,54.90
2019-05-15T15:13:10.803Z,55.80
2019-05-15T15:15:38.711Z,56.30
2019-05-15T15:18:21.390Z,55.50
2019-05-15T15:20:49.493Z,55.40
2019-05-15T15:23:17.747Z,55.80
2019-05-15T15:25:48.732Z,55.60
2019-05-15T15:28:18.849Z,55.70
2019-05-15T15:30:48.539Z,56.10
2019-05-15T15:33:16.479Z,55.30
2019-05-15T15:35:44.958Z,55.20
2019-05-15T15:38:13.666Z,55.60
2019-05-15T15:40:42.038Z,55.70
2019-05-15T15:43:10.142Z,56.00
2019-05-15T15:45:39.180Z,55.90
2019-05-15T15:48:08.571Z,55.90
2019-05-15T15:50:38.389Z,56.40
2019-05-15T15:53:09.226Z,55.80
2019-05-15T15:55:38.602Z,55.70
2019-05-15T15:58:15.776Z,55.30
2019-05-15T16:00:43.991Z,55.70
2019-05-15T16:03:19.127Z,55.60
2019-05-15T16:05:48.902Z,56.60
2019-05-15T16:08:19.077Z,55.90
2019-05-15T16:10:48.320Z,55.50
2019-05-15T16:13:18.653Z,56.00
2019-05-15T16:15:48.620Z,56.40
2019-05-15T16:18:18.156Z,55.80
2019-05-15T16:20:51.722Z,56.40
2019-05-15T16:23:19.564Z,56.20
2019-05-15T16:25:48.947Z,56.50
2019-05-15T16:28:30.025Z,55.90
2019-05-15T16:30:58.829Z,55.30
2019-05-15T16:33:28.360Z,55.50
2019-05-15T16:36:01.390Z,55.60
2019-05-15T16:38:41.763Z,55.70
2019-05-15T16:41:12.246Z,55.50
2019-05-15T16:43:45.111Z,55.40
2019-05-15T16:46:28.249Z,55.70
2019-05-15T16:48:58.469Z,56.00
2019-05-15T16:51:28.382Z,56.50
2019-05-15T16:53:58.072Z,56.20
2019-05-15T16:56:36.442Z,56.90
2019-05-15T16:59:10.977Z,56.70
2019-05-15T17:01:39.491Z,56.20
2019-05-15T17:04:08.425Z,57.00
2019-05-15T17:06:38.727Z,56.90
2019-05-15T17:09:20.789Z,56.90
2019-05-15T17:11:38.397Z,56.70
2019-05-15T17:14:08.701Z,57.00
2019-05-15T17:16:38.528Z,56.80
2019-05-15T17:19:05.748Z,57.00
2019-05-15T17:21:34.086Z,56.70
2019-05-15T17:24:02.207Z,56.80
2019-05-15T17:26:30.895Z,57.20
2019-05-15T17:28:58.628Z,57.30
2019-05-15T17:31:28.639Z,57.40
2019-05-15T17:33:58.227Z,57.60
2019-05-15T17:36:29.061Z,57.80
2019-05-15T17:38:57.929Z,57.80
2019-05-15T17:41:25.434Z,57.90
2019-05-15T17:43:53.602Z,57.80
2019-05-15T17:46:21.667Z,58.10
2019-05-15T17:48:56.211Z,57.90
2019-05-15T17:51:19.066Z,58.40
2019-05-15T17:53:48.848Z,58.00
2019-05-15T17:56:16.410Z,58.30
2019-05-15T17:58:44.201Z,58.20
2019-05-15T18:01:13.011Z,58.00
2019-05-15T18:03:40.779Z,57.90
2019-05-15T18:06:08.548Z,58.30
2019-05-15T18:08:39.114Z,58.30
2019-05-15T18:11:08.073Z,58.40
2019-05-15T18:13:38.168Z,58.50
2019-05-15T18:16:05.927Z,58.40
2019-05-15T18:18:33.975Z,58.60
2019-05-15T18:21:01.773Z,58.80
2019-05-15T18:23:30.023Z,58.90
2019-05-15T18:26:01.549Z,59.10
2019-05-15T18:28:29.426Z,59.50
2019-05-15T18:30:58.778Z,59.60
2019-05-15T18:33:28.010Z,59.80
2019-05-15T18:35:58.131Z,59.80
2019-05-15T18:38:28.140Z,60.00
2019-05-15T18:40:58.126Z,60.30
2019-05-15T18:43:28.377Z,60.50
2019-05-15T18:45:58.550Z,60.70
2019-05-15T18:48:28.884Z,61.00
2019-05-15T18:50:58.602Z,61.20
2019-05-15T18:53:28.200Z,61.50
2019-05-15T18:55:58.198Z,61.80
2019-05-15T18:58:25.774Z,62.20
2019-05-15T19:00:53.458Z,62.40
2019-05-15T19:03:22.879Z,62.80
2019-05-15T19:05:51.262Z,63.10
2019-05-15T19:08:19.005Z,63.60
2019-05-15T19:10:47.770Z,64.00
2019-05-15T19:13:15.659Z,64.30
2019-05-15T19:15:44.400Z,64.60
2019-05-15T19:18:13.210Z,64.90
2019-05-15T19:20:41.483Z,65.30
2019-05-15T19:23:28.478Z,65.50
2019-05-15T19:26:12.216Z,66.50
2019-05-15T19:28:40.024Z,66.20
2019-05-15T19:31:08.928Z,66.50
2019-05-15T19:33:40.794Z,66.80
2019-05-15T19:36:09.162Z,67.10
2019-05-15T19:38:37.724Z,67.30
2019-05-15T19:41:12.210Z,67.70
2019-05-15T19:43:40.237Z,68.30
2019-05-15T19:46:08.559Z,68.50
2019-05-15T19:48:39.520Z,68.80
2019-05-15T19:51:08.971Z,69.20
2019-05-15T19:53:37.732Z,69.50
2019-05-15T19:56:08.567Z,69.80
2019-05-15T19:58:58.588Z,70.30
2019-05-15T20:01:28.220Z,70.60
2019-05-15T20:03:58.639Z,70.80
2019-05-15T20:06:28.085Z,71.20
2019-05-15T20:08:58.475Z,71.30
2019-05-15T20:11:27.885Z,71.60
2019-05-15T20:13:58.298Z,71.90
2019-05-15T20:16:32.274Z,72.40
2019-05-15T20:18:59.971Z,72.70
2019-05-15T20:21:28.980Z,73.00
2019-05-15T20:24:03.229Z,73.50
2019-05-15T20:26:29.537Z,74.30
2019-05-15T20:28:58.294Z,74.90
2019-05-15T20:31:28.388Z,75.70
2019-05-15T20:34:05.631Z,76.30
2019-05-15T20:36:30.610Z,77.10
2019-05-15T20:38:59.167Z,78.00
2019-05-15T20:41:27.071Z,78.60
2019-05-15T20:43:59.689Z,79.40
2019-05-15T20:46:38.976Z,80.30
2019-05-15T20:49:11.122Z,81.00
2019-05-15T20:51:43.015Z,81.70
2019-05-15T20:54:10.762Z,82.10
2019-05-15T20:56:39.058Z,83.00
2019-05-15T20:59:09.542Z,83.80
2019-05-15T21:01:40.259Z,84.60
2019-05-15T21:04:19.326Z,85.20
2019-05-15T21:06:37.770Z,85.80
2019-05-15T21:09:08.427Z,86.60
2019-05-15T21:11:39.501Z,87.10
2019-05-15T21:14:08.530Z,87.40
2019-05-15T21:16:36.013Z,88.10
2019-05-15T21:19:04.028Z,88.50
2019-05-15T21:21:32.083Z,88.10
2019-05-15T21:24:00.924Z,88.80
2019-05-15T21:26:29.361Z,88.50
2019-05-15T21:28:58.643Z,89.30
2019-05-15T21:31:27.068Z,90.00
2019-05-15T21:33:55.207Z,90.00
2019-05-15T21:36:23.288Z,90.10
2019-05-15T21:38:51.764Z,90.30
2019-05-15T21:41:19.933Z,90.50
2019-05-15T21:43:48.203Z,91.10
2019-05-15T21:46:18.887Z,91.40
2019-05-15T21:48:48.712Z,91.80
2019-05-15T21:51:18.720Z,92.10
2019-05-15T21:53:47.700Z,92.10
2019-05-15T21:56:18.625Z,92.10
2019-05-15T21:58:50.809Z,92.20
2019-05-15T22:01:19.758Z,92.30
2019-05-15T22:03:49.049Z,92.50
2019-05-15T22:06:18.540Z,92.70
2019-05-15T22:08:46.624Z,92.80
2019-05-15T22:11:14.747Z,92.90
2019-05-15T22:13:43.287Z,93.00
2019-05-15T22:16:11.869Z,93.10
2019-05-15T22:18:39.926Z,93.20
2019-05-15T22:21:08.419Z,93.40
2019-05-15T22:23:38.304Z,93.40
2019-05-15T22:26:05.705Z,93.80
2019-05-15T22:28:34.096Z,93.90
2019-05-15T22:31:01.860Z,94.10
2019-05-15T22:36:18.656Z,94.40
2019-05-15T22:38:48.355Z,94.50
2019-05-15T22:41:15.354Z,94.60
2019-05-15T22:43:43.480Z,94.70
2019-05-15T22:46:11.572Z,94.80
2019-05-15T22:48:39.694Z,94.80
2019-05-15T22:51:08.123Z,94.90
2019-05-15T22:53:38.303Z,95.10
2019-05-15T22:56:09.140Z,95.30
2019-05-15T22:58:38.540Z,95.20
2019-05-15T23:01:08.862Z,95.30
2019-05-15T23:03:38.667Z,95.40
2019-05-15T23:06:08.328Z,95.60
2019-05-15T23:08:38.444Z,95.80
2019-05-15T23:11:06.344Z,96.00
2019-05-15T23:13:34.136Z,96.00
2019-05-15T23:16:01.851Z,96.10
2019-05-15T23:18:30.021Z,96.10
2019-05-15T23:20:59.448Z,96.20
2019-05-15T23:23:28.627Z,96.20
2019-05-15T23:25:57.864Z,96.20
2019-05-15T23:28:27.982Z,96.30
2019-05-15T23:30:57.583Z,96.30
2019-05-15T23:33:24.910Z,96.10
2019-05-15T23:35:52.627Z,96.40
2019-05-15T23:38:20.470Z,96.30
2019-05-15T23:40:48.492Z,96.50
2019-05-15T23:43:16.220Z,96.70
2019-05-15T23:45:43.991Z,96.90
2019-05-15T23:48:12.103Z,97.80
2019-05-15T23:50:39.936Z,97.50
2019-05-15T23:53:08.739Z,97.30
2019-05-15T23:55:37.403Z,97.50
2019-05-15T23:58:05.142Z,97.60
